TNCB

Details ICAO TNCB (BON)
Name Bonaire Flamingo
Region Caribbean Netherlands, Aruba, Curaçao, Sint Maarten
Timezone America/Curacao (UTC-4.0)
Plans Departing 108
Arriving 74
Stats Elevation 20 ft / 6 m (AMSL)
Location 12.131046° -68.268511°
Runways 1
Magnetic Variation 11.705° W
Sunrise 2017-12-16 10:47:44 UTC / 2017-12-16 06:47:44 Local
Sunset 2017-12-16 22:12:38 UTC / 2017-12-16 18:12:38 Local
Advertisement - Login to hide

Runways

ID Width Length Bearing (true) Bearing (mag) Surface Threshold Offset Overrun Length
10 148 ft / 45 m 9,451 ft / 2,881 m 91.75° 103.45° Asphalt 0 ft / 0 m 0 ft / 0 m
28 148 ft / 45 m 9,451 ft / 2,881 m 271.76° 283.46° Asphalt 0 ft / 0 m 200 ft / 61 m

Map

Weather


0- 5 10 15 20 25 30 35+ Temperature / ° C

Clouds and Precipitation
Forecast for 2017-12-16 18:00 UTC. Updated 2 hours ago

Ground ~20,000 ft ~40,000 ft Winds

METAR

TNCB 161355Z 09016KT 050V120 9999 SCT018 29/23 Q1016

TAF

TAF TNCB 161020Z 1612/1718 08012KT 9999 SCT018 PROB30 TEMPO 1612/1712 6000 SHRA SCT015CB BKN030

Frequencies

Tower 118.70 MHz TWR
Warning: Do not use this data for real-world aviation or navigation. No guarantee of current accuracy is given.